sensor_id;sensor_type;location;lat;lon;timestamp;P1;durP1;ratioP1;P2;durP2;ratioP2
25846;SDS011;13676;50.168;8.568;2023-05-07T00:00:43;1.80;;;0.90;;
25846;SDS011;13676;50.168;8.568;2023-05-07T00:03:08;1.35;;;1.05;;
25846;SDS011;13676;50.168;8.568;2023-05-07T00:05:34;1.05;;;0.73;;
25846;SDS011;13676;50.168;8.568;2023-05-07T00:08:00;3.05;;;1.00;;
25846;SDS011;13676;50.168;8.568;2023-05-07T00:10:25;1.48;;;1.00;;
25846;SDS011;13676;50.168;8.568;2023-05-07T00:12:51;1.65;;;1.00;;
25846;SDS011;13676;50.168;8.568;2023-05-07T00:15:16;1.77;;;1.15;;
25846;SDS011;13676;50.168;8.568;2023-05-07T00:17:42;3.53;;;1.10;;
25846;SDS011;13676;50.168;8.568;2023-05-07T00:20:07;1.60;;;1.10;;
25846;SDS011;13676;50.168;8.568;2023-05-07T00:22:35;1.80;;;1.25;;
25846;SDS011;13676;50.168;8.568;2023-05-07T00:25:01;3.30;;;1.27;;
25846;SDS011;13676;50.168;8.568;2023-05-07T00:27:26;1.10;;;1.00;;
25846;SDS011;13676;50.168;8.568;2023-05-07T00:29:52;3.42;;;1.02;;
25846;SDS011;13676;50.168;8.568;2023-05-07T00:32:17;2.25;;;1.15;;
25846;SDS011;13676;50.168;8.568;2023-05-07T00:34:43;1.60;;;0.90;;
25846;SDS011;13676;50.168;8.568;2023-05-07T00:37:09;2.78;;;1.40;;
25846;SDS011;13676;50.168;8.568;2023-05-07T00:39:34;3.13;;;1.10;;
25846;SDS011;13676;50.168;8.568;2023-05-07T00:42:00;2.65;;;0.82;;
25846;SDS011;13676;50.168;8.568;2023-05-07T00:44:26;1.13;;;0.82;;
25846;SDS011;13676;50.168;8.568;2023-05-07T00:46:51;1.90;;;0.90;;
25846;SDS011;13676;50.168;8.568;2023-05-07T00:49:17;1.10;;;0.80;;
25846;SDS011;13676;50.168;8.568;2023-05-07T00:51:43;1.30;;;1.10;;
25846;SDS011;13676;50.168;8.568;2023-05-07T00:54:09;1.15;;;0.90;;
25846;SDS011;13676;50.168;8.568;2023-05-07T00:56:35;2.38;;;1.00;;
25846;SDS011;13676;50.168;8.568;2023-05-07T00:59:01;1.55;;;0.90;;
25846;SDS011;13676;50.168;8.568;2023-05-07T01:01:27;3.63;;;1.00;;
25846;SDS011;13676;50.168;8.568;2023-05-07T01:03:53;1.58;;;1.02;;
25846;SDS011;13676;50.168;8.568;2023-05-07T01:06:18;2.13;;;1.25;;
25846;SDS011;13676;50.168;8.568;2023-05-07T01:08:46;2.33;;;1.02;;
25846;SDS011;13676;50.168;8.568;2023-05-07T01:11:14;2.92;;;1.40;;
25846;SDS011;13676;50.168;8.568;2023-05-07T01:13:41;1.38;;;0.93;;
25846;SDS011;13676;50.168;8.568;2023-05-07T01:16:06;1.00;;;0.90;;
25846;SDS011;13676;50.168;8.568;2023-05-07T01:18:33;1.77;;;1.10;;
25846;SDS011;13676;50.168;8.568;2023-05-07T01:20:59;1.77;;;1.20;;
25846;SDS011;13676;50.168;8.568;2023-05-07T01:23:26;3.90;;;1.10;;
25846;SDS011;13676;50.168;8.568;2023-05-07T01:25:53;2.50;;;0.90;;
25846;SDS011;13676;50.168;8.568;2023-05-07T01:28:19;2.40;;;1.20;;
25846;SDS011;13676;50.168;8.568;2023-05-07T01:30:47;1.70;;;0.90;;
25846;SDS011;13676;50.168;8.568;2023-05-07T01:33:17;2.47;;;1.20;;
25846;SDS011;13676;50.168;8.568;2023-05-07T01:35:45;3.33;;;1.42;;
25846;SDS011;13676;50.168;8.568;2023-05-07T01:38:11;2.10;;;1.15;;
25846;SDS011;13676;50.168;8.568;2023-05-07T01:40:37;1.40;;;1.00;;
25846;SDS011;13676;50.168;8.568;2023-05-07T01:43:03;2.38;;;1.20;;
25846;SDS011;13676;50.168;8.568;2023-05-07T01:47:57;2.25;;;1.20;;
25846;SDS011;13676;50.168;8.568;2023-05-07T01:50:23;3.13;;;1.37;;
25846;SDS011;13676;50.168;8.568;2023-05-07T01:52:50;3.42;;;1.05;;
25846;SDS011;13676;50.168;8.568;2023-05-07T01:55:15;1.30;;;1.10;;
25846;SDS011;13676;50.168;8.568;2023-05-07T01:57:41;1.95;;;1.00;;
25846;SDS011;13676;50.168;8.568;2023-05-07T02:00:06;1.13;;;0.95;;
25846;SDS011;13676;50.168;8.568;2023-05-07T02:02:34;5.03;;;1.20;;
25846;SDS011;13676;50.168;8.568;2023-05-07T02:04:59;2.60;;;1.00;;
25846;SDS011;13676;50.168;8.568;2023-05-07T02:07:26;1.92;;;1.10;;
25846;SDS011;13676;50.168;8.568;2023-05-07T02:09:51;1.92;;;1.10;;
25846;SDS011;13676;50.168;8.568;2023-05-07T02:12:17;5.05;;;1.20;;
25846;SDS011;13676;50.168;8.568;2023-05-07T02:14:42;1.40;;;0.90;;
25846;SDS011;13676;50.168;8.568;2023-05-07T02:17:07;1.42;;;1.08;;
25846;SDS011;13676;50.168;8.568;2023-05-07T02:19:33;2.13;;;1.13;;
25846;SDS011;13676;50.168;8.568;2023-05-07T02:21:59;2.45;;;1.40;;
25846;SDS011;13676;50.168;8.568;2023-05-07T02:24:26;2.75;;;1.10;;
25846;SDS011;13676;50.168;8.568;2023-05-07T02:26:51;2.50;;;1.10;;
25846;SDS011;13676;50.168;8.568;2023-05-07T02:29:17;2.85;;;1.00;;
25846;SDS011;13676;50.168;8.568;2023-05-07T02:31:42;2.45;;;1.20;;
25846;SDS011;13676;50.168;8.568;2023-05-07T02:34:08;3.65;;;1.27;;
25846;SDS011;13676;50.168;8.568;2023-05-07T02:36:33;1.55;;;1.17;;
25846;SDS011;13676;50.168;8.568;2023-05-07T02:38:59;1.55;;;1.05;;
25846;SDS011;13676;50.168;8.568;2023-05-07T02:41:24;2.08;;;0.90;;
25846;SDS011;13676;50.168;8.568;2023-05-07T02:43:49;1.23;;;0.98;;
25846;SDS011;13676;50.168;8.568;2023-05-07T02:46:15;1.50;;;0.95;;
25846;SDS011;13676;50.168;8.568;2023-05-07T02:48:41;2.60;;;1.00;;
25846;SDS011;13676;50.168;8.568;2023-05-07T02:51:06;1.42;;;0.90;;
25846;SDS011;13676;50.168;8.568;2023-05-07T02:53:31;1.42;;;1.00;;
25846;SDS011;13676;50.168;8.568;2023-05-07T02:55:58;3.38;;;1.20;;
25846;SDS011;13676;50.168;8.568;2023-05-07T02:58:25;3.25;;;1.30;;
25846;SDS011;13676;50.168;8.568;2023-05-07T03:00:51;1.95;;;1.00;;
25846;SDS011;13676;50.168;8.568;2023-05-07T03:03:17;2.90;;;1.00;;
25846;SDS011;13676;50.168;8.568;2023-05-07T03:05:43;1.25;;;1.05;;
25846;SDS011;13676;50.168;8.568;2023-05-07T03:08:09;1.85;;;1.20;;
25846;SDS011;13676;50.168;8.568;2023-05-07T03:10:35;1.75;;;1.20;;
25846;SDS011;13676;50.168;8.568;2023-05-07T03:13:01;1.27;;;1.00;;
25846;SDS011;13676;50.168;8.568;2023-05-07T03:15:26;2.75;;;1.50;;
25846;SDS011;13676;50.168;8.568;2023-05-07T03:17:52;1.48;;;0.95;;
25846;SDS011;13676;50.168;8.568;2023-05-07T03:20:17;2.03;;;1.00;;
25846;SDS011;13676;50.168;8.568;2023-05-07T03:22:42;1.85;;;1.05;;
25846;SDS011;13676;50.168;8.568;2023-05-07T03:25:09;2.40;;;0.95;;
25846;SDS011;13676;50.168;8.568;2023-05-07T03:27:35;1.63;;;0.95;;
25846;SDS011;13676;50.168;8.568;2023-05-07T03:30:00;1.67;;;1.40;;
25846;SDS011;13676;50.168;8.568;2023-05-07T03:32:26;4.78;;;1.13;;
25846;SDS011;13676;50.168;8.568;2023-05-07T03:34:51;1.90;;;1.38;;
25846;SDS011;13676;50.168;8.568;2023-05-07T03:37:17;1.50;;;1.13;;
25846;SDS011;13676;50.168;8.568;2023-05-07T03:39:42;2.67;;;1.38;;
25846;SDS011;13676;50.168;8.568;2023-05-07T03:42:08;2.85;;;1.08;;
25846;SDS011;13676;50.168;8.568;2023-05-07T03:44:33;1.30;;;1.05;;
25846;SDS011;13676;50.168;8.568;2023-05-07T03:46:59;2.42;;;1.58;;
25846;SDS011;13676;50.168;8.568;2023-05-07T03:49:25;1.67;;;1.30;;
25846;SDS011;13676;50.168;8.568;2023-05-07T03:51:51;4.10;;;1.37;;
25846;SDS011;13676;50.168;8.568;2023-05-07T03:54:16;2.40;;;1.40;;
25846;SDS011;13676;50.168;8.568;2023-05-07T03:56:41;1.83;;;1.00;;
25846;SDS011;13676;50.168;8.568;2023-05-07T03:59:07;2.03;;;1.02;;
25846;SDS011;13676;50.168;8.568;2023-05-07T04:01:32;1.77;;;1.02;;
25846;SDS011;13676;50.168;8.568;2023-05-07T04:03:58;1.45;;;1.08;;
25846;SDS011;13676;50.168;8.568;2023-05-07T04:06:23;2.28;;;1.10;;
25846;SDS011;13676;50.168;8.568;2023-05-07T04:08:49;2.70;;;1.40;;
25846;SDS011;13676;50.168;8.568;2023-05-07T04:11:14;2.95;;;1.48;;
25846;SDS011;13676;50.168;8.568;2023-05-07T04:13:40;1.63;;;0.95;;
25846;SDS011;13676;50.168;8.568;2023-05-07T04:16:06;1.85;;;1.40;;
25846;SDS011;13676;50.168;8.568;2023-05-07T04:18:32;2.72;;;1.30;;
25846;SDS011;13676;50.168;8.568;2023-05-07T04:20:57;4.60;;;1.30;;
25846;SDS011;13676;50.168;8.568;2023-05-07T04:23:23;2.15;;;1.20;;
25846;SDS011;13676;50.168;8.568;2023-05-07T04:25:48;2.28;;;1.10;;
25846;SDS011;13676;50.168;8.568;2023-05-07T04:28:13;2.05;;;1.00;;
25846;SDS011;13676;50.168;8.568;2023-05-07T04:30:39;1.42;;;1.08;;
25846;SDS011;13676;50.168;8.568;2023-05-07T04:33:07;2.85;;;1.20;;
25846;SDS011;13676;50.168;8.568;2023-05-07T04:35:32;1.20;;;0.90;;
25846;SDS011;13676;50.168;8.568;2023-05-07T04:37:58;3.05;;;1.20;;
25846;SDS011;13676;50.168;8.568;2023-05-07T04:40:23;2.47;;;1.42;;
25846;SDS011;13676;50.168;8.568;2023-05-07T04:42:49;3.47;;;1.40;;
25846;SDS011;13676;50.168;8.568;2023-05-07T04:45:14;1.83;;;1.35;;
25846;SDS011;13676;50.168;8.568;2023-05-07T04:47:40;2.47;;;1.38;;
25846;SDS011;13676;50.168;8.568;2023-05-07T04:50:07;2.63;;;1.30;;
25846;SDS011;13676;50.168;8.568;2023-05-07T04:52:33;3.75;;;1.30;;
25846;SDS011;13676;50.168;8.568;2023-05-07T04:54:59;1.60;;;1.27;;
25846;SDS011;13676;50.168;8.568;2023-05-07T04:57:25;1.88;;;1.35;;
25846;SDS011;13676;50.168;8.568;2023-05-07T04:59:51;2.13;;;1.20;;
25846;SDS011;13676;50.168;8.568;2023-05-07T05:02:17;3.25;;;1.50;;
25846;SDS011;13676;50.168;8.568;2023-05-07T05:04:42;3.05;;;1.50;;
25846;SDS011;13676;50.168;8.568;2023-05-07T05:07:08;2.83;;;1.42;;
25846;SDS011;13676;50.168;8.568;2023-05-07T05:09:33;2.95;;;1.40;;
25846;SDS011;13676;50.168;8.568;2023-05-07T05:11:59;2.72;;;1.30;;
25846;SDS011;13676;50.168;8.568;2023-05-07T05:14:25;5.75;;;1.60;;
25846;SDS011;13676;50.168;8.568;2023-05-07T05:16:51;2.20;;;1.40;;
25846;SDS011;13676;50.168;8.568;2023-05-07T05:19:17;2.85;;;1.50;;
25846;SDS011;13676;50.168;8.568;2023-05-07T05:21:42;3.13;;;1.38;;
25846;SDS011;13676;50.168;8.568;2023-05-07T05:24:09;4.03;;;1.50;;
25846;SDS011;13676;50.168;8.568;2023-05-07T05:26:34;2.47;;;1.38;;
25846;SDS011;13676;50.168;8.568;2023-05-07T05:29:00;2.00;;;1.20;;
25846;SDS011;13676;50.168;8.568;2023-05-07T05:31:25;1.40;;;1.05;;
25846;SDS011;13676;50.168;8.568;2023-05-07T05:33:50;2.22;;;1.35;;
25846;SDS011;13676;50.168;8.568;2023-05-07T05:36:16;2.50;;;1.40;;
25846;SDS011;13676;50.168;8.568;2023-05-07T05:38:43;1.73;;;1.10;;
25846;SDS011;13676;50.168;8.568;2023-05-07T05:41:09;1.15;;;0.95;;
25846;SDS011;13676;50.168;8.568;2023-05-07T05:43:35;2.30;;;1.40;;
25846;SDS011;13676;50.168;8.568;2023-05-07T05:46:00;2.47;;;1.20;;
25846;SDS011;13676;50.168;8.568;2023-05-07T05:48:26;2.33;;;1.38;;
25846;SDS011;13676;50.168;8.568;2023-05-07T05:50:51;2.67;;;1.20;;
25846;SDS011;13676;50.168;8.568;2023-05-07T05:53:17;1.42;;;1.33;;
25846;SDS011;13676;50.168;8.568;2023-05-07T05:55:42;2.63;;;1.30;;
25846;SDS011;13676;50.168;8.568;2023-05-07T05:58:08;1.88;;;1.20;;
25846;SDS011;13676;50.168;8.568;2023-05-07T06:00:35;2.90;;;1.90;;
25846;SDS011;13676;50.168;8.568;2023-05-07T06:03:00;2.13;;;1.30;;
25846;SDS011;13676;50.168;8.568;2023-05-07T06:05:26;2.17;;;1.25;;
25846;SDS011;13676;50.168;8.568;2023-05-07T06:07:51;1.30;;;1.17;;
25846;SDS011;13676;50.168;8.568;2023-05-07T06:10:17;2.10;;;1.00;;
25846;SDS011;13676;50.168;8.568;2023-05-07T06:12:44;1.27;;;1.17;;
25846;SDS011;13676;50.168;8.568;2023-05-07T06:15:09;1.90;;;1.40;;
25846;SDS011;13676;50.168;8.568;2023-05-07T06:17:35;2.47;;;1.58;;
25846;SDS011;13676;50.168;8.568;2023-05-07T06:20:01;2.75;;;1.30;;
25846;SDS011;13676;50.168;8.568;2023-05-07T06:22:26;3.95;;;1.60;;
25846;SDS011;13676;50.168;8.568;2023-05-07T06:24:52;2.17;;;1.40;;
25846;SDS011;13676;50.168;8.568;2023-05-07T06:27:17;1.40;;;1.20;;
25846;SDS011;13676;50.168;8.568;2023-05-07T06:29:43;2.17;;;1.33;;
25846;SDS011;13676;50.168;8.568;2023-05-07T06:34:34;1.67;;;1.42;;
25846;SDS011;13676;50.168;8.568;2023-05-07T06:37:00;3.38;;;1.45;;
25846;SDS011;13676;50.168;8.568;2023-05-07T06:39:26;4.10;;;1.30;;
25846;SDS011;13676;50.168;8.568;2023-05-07T06:41:52;2.40;;;1.80;;
25846;SDS011;13676;50.168;8.568;2023-05-07T06:44:18;2.47;;;1.67;;
25846;SDS011;13676;50.168;8.568;2023-05-07T06:46:44;2.53;;;1.55;;
25846;SDS011;13676;50.168;8.568;2023-05-07T06:49:10;2.95;;;1.40;;
25846;SDS011;13676;50.168;8.568;2023-05-07T06:51:36;3.33;;;1.70;;
25846;SDS011;13676;50.168;8.568;2023-05-07T06:54:01;4.95;;;1.80;;
25846;SDS011;13676;50.168;8.568;2023-05-07T06:56:26;1.98;;;1.83;;
25846;SDS011;13676;50.168;8.568;2023-05-07T06:58:52;3.63;;;1.60;;
25846;SDS011;13676;50.168;8.568;2023-05-07T07:01:17;2.20;;;1.80;;
25846;SDS011;13676;50.168;8.568;2023-05-07T07:03:42;4.25;;;1.83;;
25846;SDS011;13676;50.168;8.568;2023-05-07T07:06:08;2.85;;;1.90;;
25846;SDS011;13676;50.168;8.568;2023-05-07T07:08:34;4.25;;;2.03;;
25846;SDS011;13676;50.168;8.568;2023-05-07T07:11:00;3.97;;;1.83;;
25846;SDS011;13676;50.168;8.568;2023-05-07T07:13:25;1.70;;;1.60;;
25846;SDS011;13676;50.168;8.568;2023-05-07T07:15:51;3.40;;;2.42;;
25846;SDS011;13676;50.168;8.568;2023-05-07T07:18:17;2.87;;;1.70;;
25846;SDS011;13676;50.168;8.568;2023-05-07T07:20:43;3.22;;;1.77;;
25846;SDS011;13676;50.168;8.568;2023-05-07T07:23:09;2.92;;;2.00;;
25846;SDS011;13676;50.168;8.568;2023-05-07T07:25:34;3.58;;;1.83;;
25846;SDS011;13676;50.168;8.568;2023-05-07T07:28:00;2.95;;;1.90;;
25846;SDS011;13676;50.168;8.568;2023-05-07T07:30:25;2.95;;;1.90;;
25846;SDS011;13676;50.168;8.568;2023-05-07T07:32:51;4.80;;;2.20;;
25846;SDS011;13676;50.168;8.568;2023-05-07T07:35:17;4.40;;;2.10;;
25846;SDS011;13676;50.168;8.568;2023-05-07T07:37:43;1.90;;;1.70;;
25846;SDS011;13676;50.168;8.568;2023-05-07T07:40:08;4.65;;;2.45;;
25846;SDS011;13676;50.168;8.568;2023-05-07T07:42:34;2.17;;;1.70;;
25846;SDS011;13676;50.168;8.568;2023-05-07T07:44:59;2.65;;;1.70;;
25846;SDS011;13676;50.168;8.568;2023-05-07T07:47:25;2.67;;;1.92;;
25846;SDS011;13676;50.168;8.568;2023-05-07T07:49:51;3.20;;;2.30;;
25846;SDS011;13676;50.168;8.568;2023-05-07T07:52:16;4.15;;;2.10;;
25846;SDS011;13676;50.168;8.568;2023-05-07T07:54:41;4.78;;;2.50;;
25846;SDS011;13676;50.168;8.568;2023-05-07T07:57:08;3.05;;;2.30;;
25846;SDS011;13676;50.168;8.568;2023-05-07T07:59:34;4.75;;;2.20;;
25846;SDS011;13676;50.168;8.568;2023-05-07T08:02:00;3.45;;;2.30;;
25846;SDS011;13676;50.168;8.568;2023-05-07T08:04:26;3.00;;;2.13;;
25846;SDS011;13676;50.168;8.568;2023-05-07T08:06:51;3.20;;;2.00;;
25846;SDS011;13676;50.168;8.568;2023-05-07T08:11:44;3.88;;;2.25;;
25846;SDS011;13676;50.168;8.568;2023-05-07T08:14:10;5.82;;;2.00;;
25846;SDS011;13676;50.168;8.568;2023-05-07T08:16:36;4.97;;;2.22;;
25846;SDS011;13676;50.168;8.568;2023-05-07T08:19:01;6.22;;;2.35;;
25846;SDS011;13676;50.168;8.568;2023-05-07T08:21:27;4.72;;;2.70;;
25846;SDS011;13676;50.168;8.568;2023-05-07T08:23:52;4.57;;;2.97;;
25846;SDS011;13676;50.168;8.568;2023-05-07T08:26:18;3.47;;;2.30;;
25846;SDS011;13676;50.168;8.568;2023-05-07T08:28:43;4.43;;;2.97;;
25846;SDS011;13676;50.168;8.568;2023-05-07T08:31:09;3.90;;;2.40;;
25846;SDS011;13676;50.168;8.568;2023-05-07T08:33:34;3.88;;;2.22;;
25846;SDS011;13676;50.168;8.568;2023-05-07T08:35:59;5.40;;;2.80;;
25846;SDS011;13676;50.168;8.568;2023-05-07T08:38:25;5.35;;;2.70;;
25846;SDS011;13676;50.168;8.568;2023-05-07T08:40:51;3.15;;;2.10;;
25846;SDS011;13676;50.168;8.568;2023-05-07T08:43:17;2.58;;;2.25;;
25846;SDS011;13676;50.168;8.568;2023-05-07T08:45:43;6.78;;;2.75;;
25846;SDS011;13676;50.168;8.568;2023-05-07T08:48:15;5.10;;;2.50;;
25846;SDS011;13676;50.168;8.568;2023-05-07T08:50:42;3.58;;;2.50;;
25846;SDS011;13676;50.168;8.568;2023-05-07T08:53:08;3.20;;;2.50;;
25846;SDS011;13676;50.168;8.568;2023-05-07T08:55:33;2.90;;;2.30;;
25846;SDS011;13676;50.168;8.568;2023-05-07T08:57:59;4.40;;;2.90;;
25846;SDS011;13676;50.168;8.568;2023-05-07T09:00:25;2.75;;;2.45;;
25846;SDS011;13676;50.168;8.568;2023-05-07T09:02:50;2.90;;;2.40;;
25846;SDS011;13676;50.168;8.568;2023-05-07T09:05:17;4.95;;;2.60;;
25846;SDS011;13676;50.168;8.568;2023-05-07T09:07:43;3.65;;;3.10;;
25846;SDS011;13676;50.168;8.568;2023-05-07T09:10:10;2.38;;;2.17;;
25846;SDS011;13676;50.168;8.568;2023-05-07T09:12:36;5.18;;;2.42;;
25846;SDS011;13676;50.168;8.568;2023-05-07T09:15:01;2.78;;;2.50;;
25846;SDS011;13676;50.168;8.568;2023-05-07T09:17:28;5.13;;;2.83;;
25846;SDS011;13676;50.168;8.568;2023-05-07T09:19:53;2.33;;;2.13;;
25846;SDS011;13676;50.168;8.568;2023-05-07T09:22:19;2.55;;;2.00;;
25846;SDS011;13676;50.168;8.568;2023-05-07T09:24:50;3.88;;;2.72;;
25846;SDS011;13676;50.168;8.568;2023-05-07T09:27:17;4.22;;;2.22;;
25846;SDS011;13676;50.168;8.568;2023-05-07T09:29:44;4.20;;;2.47;;
25846;SDS011;13676;50.168;8.568;2023-05-07T09:32:09;2.65;;;1.98;;
25846;SDS011;13676;50.168;8.568;2023-05-07T09:34:36;7.53;;;2.45;;
25846;SDS011;13676;50.168;8.568;2023-05-07T09:37:01;3.53;;;2.57;;
25846;SDS011;13676;50.168;8.568;2023-05-07T09:39:47;4.63;;;2.03;;
25846;SDS011;13676;50.168;8.568;2023-05-07T09:42:13;3.00;;;2.10;;
25846;SDS011;13676;50.168;8.568;2023-05-07T09:44:40;5.07;;;2.22;;
25846;SDS011;13676;50.168;8.568;2023-05-07T09:47:07;5.75;;;2.78;;
25846;SDS011;13676;50.168;8.568;2023-05-07T09:49:34;2.75;;;2.53;;
25846;SDS011;13676;50.168;8.568;2023-05-07T09:52:01;2.75;;;2.15;;
25846;SDS011;13676;50.168;8.568;2023-05-07T09:56:56;2.78;;;2.33;;
25846;SDS011;13676;50.168;8.568;2023-05-07T09:59:22;4.82;;;2.53;;
25846;SDS011;13676;50.168;8.568;2023-05-07T10:01:47;4.03;;;2.60;;
25846;SDS011;13676;50.168;8.568;2023-05-07T10:04:14;3.63;;;2.47;;
25846;SDS011;13676;50.168;8.568;2023-05-07T10:06:40;3.60;;;2.80;;
25846;SDS011;13676;50.168;8.568;2023-05-07T10:09:06;2.63;;;2.33;;
25846;SDS011;13676;50.168;8.568;2023-05-07T10:11:32;2.28;;;1.95;;
25846;SDS011;13676;50.168;8.568;2023-05-07T10:13:59;2.55;;;1.90;;
25846;SDS011;13676;50.168;8.568;2023-05-07T10:19:03;3.03;;;2.10;;
25846;SDS011;13676;50.168;8.568;2023-05-07T10:21:30;2.85;;;2.22;;
25846;SDS011;13676;50.168;8.568;2023-05-07T10:26:22;3.67;;;2.28;;
25846;SDS011;13676;50.168;8.568;2023-05-07T10:28:51;4.45;;;2.60;;
25846;SDS011;13676;50.168;8.568;2023-05-07T10:34:09;2.97;;;1.88;;
25846;SDS011;13676;50.168;8.568;2023-05-07T10:36:36;2.50;;;1.80;;
25846;SDS011;13676;50.168;8.568;2023-05-07T10:39:02;3.33;;;1.85;;
25846;SDS011;13676;50.168;8.568;2023-05-07T10:41:27;2.33;;;1.90;;
25846;SDS011;13676;50.168;8.568;2023-05-07T10:43:54;4.60;;;2.08;;
25846;SDS011;13676;50.168;8.568;2023-05-07T10:46:20;2.45;;;1.80;;
25846;SDS011;13676;50.168;8.568;2023-05-07T10:51:28;2.42;;;2.20;;
25846;SDS011;13676;50.168;8.568;2023-05-07T10:56:50;2.63;;;2.03;;
25846;SDS011;13676;50.168;8.568;2023-05-07T11:04:21;3.22;;;2.13;;
25846;SDS011;13676;50.168;8.568;2023-05-07T11:07:38;2.53;;;2.10;;
25846;SDS011;13676;50.168;8.568;2023-05-07T11:15:04;6.68;;;2.08;;
25846;SDS011;13676;50.168;8.568;2023-05-07T11:19:57;2.13;;;1.60;;
25846;SDS011;13676;50.168;8.568;2023-05-07T11:25:01;1.98;;;1.40;;
25846;SDS011;13676;50.168;8.568;2023-05-07T11:27:28;2.33;;;1.50;;
25846;SDS011;13676;50.168;8.568;2023-05-07T11:29:54;8.45;;;2.60;;
25846;SDS011;13676;50.168;8.568;2023-05-07T11:32:23;2.83;;;2.63;;
25846;SDS011;13676;50.168;8.568;2023-05-07T11:34:52;4.55;;;1.90;;
25846;SDS011;13676;50.168;8.568;2023-05-07T11:37:18;4.95;;;2.40;;
25846;SDS011;13676;50.168;8.568;2023-05-07T11:39:46;3.38;;;1.83;;
25846;SDS011;13676;50.168;8.568;2023-05-07T11:44:53;2.33;;;1.73;;
25846;SDS011;13676;50.168;8.568;2023-05-07T11:47:19;3.20;;;1.77;;
25846;SDS011;13676;50.168;8.568;2023-05-07T11:49:48;3.47;;;2.45;;
25846;SDS011;13676;50.168;8.568;2023-05-07T11:52:15;2.40;;;2.00;;
25846;SDS011;13676;50.168;8.568;2023-05-07T11:54:44;2.60;;;1.40;;
25846;SDS011;13676;50.168;8.568;2023-05-07T11:57:14;6.85;;;1.83;;
25846;SDS011;13676;50.168;8.568;2023-05-07T11:59:40;3.65;;;1.85;;
25846;SDS011;13676;50.168;8.568;2023-05-07T12:02:06;2.75;;;1.90;;
25846;SDS011;13676;50.168;8.568;2023-05-07T12:04:32;1.88;;;1.48;;
25846;SDS011;13676;50.168;8.568;2023-05-07T12:06:57;2.20;;;1.70;;
25846;SDS011;13676;50.168;8.568;2023-05-07T12:09:25;3.35;;;1.73;;
25846;SDS011;13676;50.168;8.568;2023-05-07T12:14:16;2.25;;;1.75;;
25846;SDS011;13676;50.168;8.568;2023-05-07T12:16:41;2.20;;;1.67;;
25846;SDS011;13676;50.168;8.568;2023-05-07T12:19:07;3.95;;;1.80;;
25846;SDS011;13676;50.168;8.568;2023-05-07T12:21:35;4.65;;;1.90;;
25846;SDS011;13676;50.168;8.568;2023-05-07T12:24:01;1.48;;;1.20;;
25846;SDS011;13676;50.168;8.568;2023-05-07T12:26:26;2.08;;;1.83;;
25846;SDS011;13676;50.168;8.568;2023-05-07T12:28:52;3.35;;;1.52;;
25846;SDS011;13676;50.168;8.568;2023-05-07T12:31:17;2.60;;;1.48;;
25846;SDS011;13676;50.168;8.568;2023-05-07T12:33:43;4.60;;;1.90;;
25846;SDS011;13676;50.168;8.568;2023-05-07T12:36:08;3.65;;;1.52;;
25846;SDS011;13676;50.168;8.568;2023-05-07T12:38:36;1.67;;;1.33;;
25846;SDS011;13676;50.168;8.568;2023-05-07T12:41:06;3.25;;;1.63;;
25846;SDS011;13676;50.168;8.568;2023-05-07T12:43:33;2.28;;;1.60;;
25846;SDS011;13676;50.168;8.568;2023-05-07T12:45:59;2.33;;;1.30;;
25846;SDS011;13676;50.168;8.568;2023-05-07T12:48:27;1.90;;;1.60;;
25846;SDS011;13676;50.168;8.568;2023-05-07T12:50:53;2.40;;;1.70;;
25846;SDS011;13676;50.168;8.568;2023-05-07T12:53:26;4.93;;;1.80;;
25846;SDS011;13676;50.168;8.568;2023-05-07T12:55:53;2.00;;;1.50;;
25846;SDS011;13676;50.168;8.568;2023-05-07T12:58:20;3.67;;;1.65;;
25846;SDS011;13676;50.168;8.568;2023-05-07T13:00:49;1.90;;;1.58;;
25846;SDS011;13676;50.168;8.568;2023-05-07T13:06:02;1.73;;;1.40;;
25846;SDS011;13676;50.168;8.568;2023-05-07T13:08:38;2.78;;;1.88;;
25846;SDS011;13676;50.168;8.568;2023-05-07T13:11:07;1.85;;;1.27;;
25846;SDS011;13676;50.168;8.568;2023-05-07T13:13:33;4.68;;;1.90;;
25846;SDS011;13676;50.168;8.568;2023-05-07T13:15:59;3.13;;;1.50;;
25846;SDS011;13676;50.168;8.568;2023-05-07T13:18:25;1.50;;;1.40;;
25846;SDS011;13676;50.168;8.568;2023-05-07T13:20:52;2.70;;;1.75;;
25846;SDS011;13676;50.168;8.568;2023-05-07T17:08:43;2.47;;;1.60;;
25846;SDS011;13676;50.168;8.568;2023-05-07T17:11:10;4.20;;;1.55;;
25846;SDS011;13676;50.168;8.568;2023-05-07T17:13:36;3.50;;;1.58;;
25846;SDS011;13676;50.168;8.568;2023-05-07T17:16:01;12.13;;;1.90;;
25846;SDS011;13676;50.168;8.568;2023-05-07T17:18:27;3.88;;;1.60;;
25846;SDS011;13676;50.168;8.568;2023-05-07T17:20:52;3.50;;;1.40;;
25846;SDS011;13676;50.168;8.568;2023-05-07T17:23:17;2.72;;;1.38;;
25846;SDS011;13676;50.168;8.568;2023-05-07T17:25:43;3.67;;;1.50;;
25846;SDS011;13676;50.168;8.568;2023-05-07T17:28:12;3.78;;;1.52;;
25846;SDS011;13676;50.168;8.568;2023-05-07T17:30:38;3.08;;;1.50;;
25846;SDS011;13676;50.168;8.568;2023-05-07T17:33:04;3.63;;;1.63;;
25846;SDS011;13676;50.168;8.568;2023-05-07T17:35:30;3.42;;;1.65;;
25846;SDS011;13676;50.168;8.568;2023-05-07T17:37:56;2.60;;;1.33;;
25846;SDS011;13676;50.168;8.568;2023-05-07T17:40:23;3.33;;;1.45;;
25846;SDS011;13676;50.168;8.568;2023-05-07T17:42:49;3.72;;;1.60;;
25846;SDS011;13676;50.168;8.568;2023-05-07T17:45:14;1.88;;;1.17;;
25846;SDS011;13676;50.168;8.568;2023-05-07T17:47:40;1.35;;;1.25;;
25846;SDS011;13676;50.168;8.568;2023-05-07T17:50:06;1.77;;;1.38;;
25846;SDS011;13676;50.168;8.568;2023-05-07T17:52:37;2.55;;;1.27;;
25846;SDS011;13676;50.168;8.568;2023-05-07T17:55:03;2.42;;;1.70;;
25846;SDS011;13676;50.168;8.568;2023-05-07T17:57:28;2.97;;;1.65;;
25846;SDS011;13676;50.168;8.568;2023-05-07T17:59:56;2.75;;;1.45;;
25846;SDS011;13676;50.168;8.568;2023-05-07T18:02:22;4.10;;;1.50;;
25846;SDS011;13676;50.168;8.568;2023-05-07T18:04:48;1.60;;;1.23;;
25846;SDS011;13676;50.168;8.568;2023-05-07T18:07:14;2.83;;;1.55;;
25846;SDS011;13676;50.168;8.568;2023-05-07T18:09:40;3.15;;;1.40;;
25846;SDS011;13676;50.168;8.568;2023-05-07T18:12:05;4.68;;;1.83;;
25846;SDS011;13676;50.168;8.568;2023-05-07T18:14:32;1.95;;;1.40;;
25846;SDS011;13676;50.168;8.568;2023-05-07T18:16:57;1.92;;;1.27;;
25846;SDS011;13676;50.168;8.568;2023-05-07T18:19:24;4.03;;;1.70;;
25846;SDS011;13676;50.168;8.568;2023-05-07T18:21:50;2.00;;;1.20;;
25846;SDS011;13676;50.168;8.568;2023-05-07T18:24:19;3.50;;;1.40;;
25846;SDS011;13676;50.168;8.568;2023-05-07T18:26:44;1.55;;;1.17;;
25846;SDS011;13676;50.168;8.568;2023-05-07T18:29:13;1.48;;;1.27;;
25846;SDS011;13676;50.168;8.568;2023-05-07T18:31:38;3.80;;;1.65;;
25846;SDS011;13676;50.168;8.568;2023-05-07T18:34:05;1.55;;;1.15;;
25846;SDS011;13676;50.168;8.568;2023-05-07T18:36:31;1.80;;;1.38;;
25846;SDS011;13676;50.168;8.568;2023-05-07T18:38:56;1.33;;;1.13;;
25846;SDS011;13676;50.168;8.568;2023-05-07T18:41:25;6.82;;;1.80;;
25846;SDS011;13676;50.168;8.568;2023-05-07T18:43:52;2.72;;;1.60;;
25846;SDS011;13676;50.168;8.568;2023-05-07T18:46:18;1.58;;;1.42;;
25846;SDS011;13676;50.168;8.568;2023-05-07T18:51:31;1.45;;;1.35;;
25846;SDS011;13676;50.168;8.568;2023-05-07T18:53:57;1.23;;;1.13;;
25846;SDS011;13676;50.168;8.568;2023-05-07T18:56:23;2.72;;;1.50;;
25846;SDS011;13676;50.168;8.568;2023-05-07T18:58:49;2.45;;;1.55;;
25846;SDS011;13676;50.168;8.568;2023-05-07T19:01:14;1.75;;;1.40;;
25846;SDS011;13676;50.168;8.568;2023-05-07T19:03:40;2.80;;;1.70;;
25846;SDS011;13676;50.168;8.568;2023-05-07T19:06:05;9.50;;;1.58;;
25846;SDS011;13676;50.168;8.568;2023-05-07T19:08:31;4.70;;;1.30;;
25846;SDS011;13676;50.168;8.568;2023-05-07T19:10:57;3.60;;;1.50;;
25846;SDS011;13676;50.168;8.568;2023-05-07T19:13:24;3.53;;;1.90;;
25846;SDS011;13676;50.168;8.568;2023-05-07T19:15:51;2.22;;;1.48;;